createdAt,value
2018-09-21T00:01:47.763Z,15.97
2018-09-21T00:04:16.706Z,15.03
2018-09-21T00:06:45.626Z,14.27
2018-09-21T00:09:14.648Z,14.45
2018-09-21T00:11:43.552Z,14.67
2018-09-21T00:14:12.462Z,13.63
2018-09-21T00:16:41.430Z,15.73
2018-09-21T00:19:10.371Z,15.47
2018-09-21T00:21:39.275Z,17.27
2018-09-21T00:24:08.223Z,14.70
2018-09-21T00:26:37.141Z,12.53
2018-09-21T00:29:06.055Z,13.20
2018-09-21T00:31:35.024Z,13.53
2018-09-21T00:34:03.958Z,14.47
2018-09-21T00:36:32.866Z,13.47
2018-09-21T00:39:01.900Z,15.37
2018-09-21T00:41:30.842Z,15.43
2018-09-21T00:43:59.775Z,12.67
2018-09-21T00:46:28.735Z,12.27
2018-09-21T00:48:57.632Z,11.83
2018-09-21T00:51:26.543Z,11.77
2018-09-21T00:53:56.816Z,11.83
2018-09-21T00:56:25.605Z,11.73
2018-09-21T00:58:54.763Z,11.77
2018-09-21T01:01:23.769Z,11.30
2018-09-21T01:03:52.606Z,12.37
2018-09-21T01:06:21.444Z,12.80
2018-09-21T01:08:50.330Z,14.37
2018-09-21T01:11:19.182Z,14.93
2018-09-21T01:13:48.030Z,12.73
2018-09-21T01:16:16.899Z,12.23
2018-09-21T01:18:45.717Z,11.27
2018-09-21T01:21:14.562Z,12.00
2018-09-21T01:23:43.463Z,11.73
2018-09-21T01:26:12.359Z,12.57
2018-09-21T01:28:41.239Z,13.83
2018-09-21T01:31:10.122Z,13.20
2018-09-21T01:33:38.947Z,12.73
2018-09-21T01:36:07.829Z,14.53
2018-09-21T01:38:36.703Z,14.70
2018-09-21T01:41:05.553Z,15.27
2018-09-21T01:43:34.382Z,16.07
2018-09-21T01:46:04.826Z,16.00
2018-09-21T01:48:33.653Z,14.27
2018-09-21T01:51:02.803Z,17.57
2018-09-21T01:53:32.494Z,18.10
2018-09-21T01:56:01.310Z,19.80
2018-09-21T01:58:30.146Z,17.93
2018-09-21T02:01:00.217Z,21.10
2018-09-21T02:03:29.017Z,19.63
2018-09-21T02:05:57.857Z,22.90
2018-09-21T02:08:26.646Z,21.67
2018-09-21T02:10:55.547Z,25.77
2018-09-21T02:13:24.458Z,22.57
2018-09-21T02:15:53.414Z,23.00
2018-09-21T02:18:22.245Z,29.57
2018-09-21T02:20:51.108Z,33.67
2018-09-21T02:23:19.946Z,33.40
2018-09-21T02:25:48.794Z,30.03
2018-09-21T02:28:17.630Z,70.30
2018-09-21T02:30:46.479Z,44.57
2018-09-21T02:33:15.362Z,31.27
2018-09-21T02:35:44.187Z,47.23
2018-09-21T02:38:12.993Z,41.33
2018-09-21T02:40:43.112Z,42.93
2018-09-21T02:43:11.929Z,36.83
2018-09-21T02:45:40.753Z,34.77
2018-09-21T02:48:09.590Z,27.07
2018-09-21T02:50:38.388Z,27.17
2018-09-21T02:53:07.227Z,21.80
2018-09-21T02:55:36.116Z,22.03
2018-09-21T02:58:05.026Z,22.33
2018-09-21T03:00:33.959Z,22.50
2018-09-21T03:03:04.153Z,18.73
2018-09-21T03:05:33.109Z,18.80
2018-09-21T03:08:01.968Z,19.00
2018-09-21T03:10:32.065Z,14.83
2018-09-21T03:13:01.173Z,14.73
2018-09-21T03:15:30.027Z,31.67
2018-09-21T03:17:58.854Z,23.43
2018-09-21T03:20:29.092Z,32.00
2018-09-21T03:22:57.986Z,18.83
2018-09-21T03:25:26.858Z,15.93
2018-09-21T03:27:55.741Z,16.70
2018-09-21T03:30:24.664Z,13.70
2018-09-21T03:32:53.479Z,13.90
2018-09-21T03:35:22.323Z,11.70
2018-09-21T03:37:52.530Z,12.20
2018-09-21T03:40:21.472Z,12.23
2018-09-21T03:42:50.505Z,13.70
2018-09-21T03:45:20.661Z,14.20
2018-09-21T03:47:49.494Z,14.47
2018-09-21T03:50:19.677Z,15.70
2018-09-21T03:52:48.514Z,19.50
2018-09-21T03:55:17.363Z,19.53
2018-09-21T03:57:46.317Z,17.17
2018-09-21T04:00:15.138Z,19.30
2018-09-21T04:02:43.989Z,15.83
2018-09-21T04:05:14.213Z,15.23
2018-09-21T04:07:43.069Z,14.47
2018-09-21T04:10:11.887Z,18.90
2018-09-21T04:12:42.095Z,21.50
2018-09-21T04:15:10.976Z,25.30
2018-09-21T04:17:39.761Z,22.00
2018-09-21T04:20:09.986Z,28.90
2018-09-21T04:22:38.945Z,37.67
2018-09-21T04:25:09.128Z,37.50
2018-09-21T04:27:42.066Z,43.10
2018-09-21T04:32:34.075Z,31.77
2018-09-21T04:35:02.936Z,29.07
2018-09-21T04:37:31.754Z,32.03
2018-09-21T04:40:00.606Z,33.57
2018-09-21T04:42:29.495Z,23.80
2018-09-21T04:44:58.367Z,29.97
2018-09-21T04:47:28.321Z,26.73
2018-09-21T04:49:57.253Z,26.00
2018-09-21T04:52:26.099Z,28.67
2018-09-21T04:54:54.976Z,32.63
2018-09-21T04:57:23.840Z,28.17
2018-09-21T04:59:52.690Z,29.27
2018-09-21T05:02:21.509Z,26.87
2018-09-21T05:04:50.395Z,26.57
2018-09-21T05:07:19.180Z,26.03
2018-09-21T05:09:48.007Z,26.50
2018-09-21T05:12:17.022Z,23.03
2018-09-21T05:14:46.586Z,28.30
2018-09-21T05:17:15.477Z,29.20
2018-09-21T05:19:44.401Z,29.37
2018-09-21T05:22:13.406Z,31.80
2018-09-21T05:24:48.437Z,29.30
2018-09-21T05:27:17.322Z,36.27
2018-09-21T05:29:46.168Z,42.40
2018-09-21T05:32:15.075Z,38.13
2018-09-21T05:34:44.095Z,32.80
2018-09-21T05:37:12.774Z,37.40
2018-09-21T05:39:41.582Z,28.97
2018-09-21T05:42:10.442Z,23.50
2018-09-21T05:44:39.281Z,31.13
2018-09-21T05:47:08.350Z,29.67
2018-09-21T05:49:37.165Z,22.37
2018-09-21T05:52:06.413Z,28.17
2018-09-21T05:54:35.297Z,37.67
2018-09-21T05:57:04.109Z,41.80
2018-09-21T05:59:33.005Z,43.70
2018-09-21T06:02:01.889Z,42.57
2018-09-21T06:04:30.706Z,43.57
2018-09-21T06:06:59.715Z,37.83
2018-09-21T06:09:28.511Z,42.33
2018-09-21T06:11:57.319Z,37.70
2018-09-21T06:14:26.196Z,31.77
2018-09-21T06:16:55.277Z,36.63
2018-09-21T06:19:24.124Z,38.33
2018-09-21T06:21:52.897Z,39.00
2018-09-21T06:24:21.796Z,33.77
2018-09-21T06:26:50.635Z,34.43
2018-09-21T06:29:19.581Z,34.73
2018-09-21T06:31:48.529Z,29.20
2018-09-21T06:34:18.597Z,33.37
2018-09-21T06:36:47.587Z,29.67
2018-09-21T06:39:16.422Z,25.63
2018-09-21T06:41:45.337Z,23.43
2018-09-21T06:44:14.150Z,30.73
2018-09-21T06:46:42.966Z,27.53
2018-09-21T06:49:13.129Z,25.83
2018-09-21T06:51:41.965Z,32.00
2018-09-21T06:54:10.824Z,35.50
2018-09-21T06:56:39.671Z,28.17
2018-09-21T06:59:08.584Z,29.53
2018-09-21T07:01:37.594Z,28.30
2018-09-21T07:04:06.403Z,31.27
2018-09-21T07:06:35.245Z,31.60
2018-09-21T07:09:05.006Z,33.00
2018-09-21T07:11:33.828Z,23.40
2018-09-21T07:14:02.661Z,27.00
2018-09-21T07:16:32.973Z,35.70
2018-09-21T07:19:01.833Z,40.37
2018-09-21T07:21:30.788Z,35.97
2018-09-21T07:23:59.626Z,27.23
2018-09-21T07:26:28.544Z,28.70
2018-09-21T07:28:58.785Z,23.07
2018-09-21T07:31:27.765Z,19.90
2018-09-21T07:33:56.654Z,24.67
2018-09-21T07:36:26.015Z,38.90
2018-09-21T07:38:54.834Z,22.37
2018-09-21T07:41:24.981Z,22.07
2018-09-21T07:43:54.134Z,22.17
2018-09-21T07:46:23.025Z,31.03
2018-09-21T07:48:51.826Z,34.37
2018-09-21T07:51:26.794Z,44.43
2018-09-21T07:53:55.625Z,43.23
2018-09-21T07:56:24.441Z,19.33
2018-09-21T07:58:53.385Z,22.77
2018-09-21T08:01:22.348Z,18.30
2018-09-21T08:03:51.157Z,28.60
2018-09-21T08:06:20.065Z,14.70
2018-09-21T08:08:48.876Z,38.70
2018-09-21T08:11:17.992Z,12.03
2018-09-21T08:13:46.854Z,11.40
2018-09-21T08:16:15.690Z,17.50
2018-09-21T08:18:44.530Z,13.30
2018-09-21T08:21:14.942Z,16.37
2018-09-21T08:23:43.741Z,27.20
2018-09-21T08:26:12.535Z,11.40
2018-09-21T08:28:42.629Z,13.63
2018-09-21T08:31:11.543Z,12.23
2018-09-21T08:33:40.345Z,12.37
2018-09-21T08:36:09.230Z,8.10
2018-09-21T08:38:38.042Z,12.03
2018-09-21T08:41:07.330Z,15.30
2018-09-21T08:43:37.413Z,10.37
2018-09-21T08:46:06.225Z,14.53
2018-09-21T08:48:35.023Z,12.17
2018-09-21T08:51:05.394Z,15.43
2018-09-21T08:53:34.363Z,11.40
2018-09-21T08:56:03.192Z,12.17
2018-09-21T08:58:33.266Z,9.00
2018-09-21T09:01:02.073Z,13.27
2018-09-21T09:03:30.940Z,7.97
2018-09-21T09:05:59.804Z,11.70
2018-09-21T09:08:28.623Z,10.70
2018-09-21T09:10:57.460Z,9.47
2018-09-21T09:13:26.397Z,9.93
2018-09-21T09:15:55.355Z,9.67
2018-09-21T09:18:24.240Z,7.97
2018-09-21T09:20:53.098Z,9.57
2018-09-21T09:23:21.887Z,8.70
2018-09-21T09:25:50.725Z,8.77
2018-09-21T09:28:19.578Z,10.33
2018-09-21T09:30:48.491Z,10.83
2018-09-21T09:33:17.304Z,7.50
2018-09-21T09:35:46.249Z,11.43
2018-09-21T09:38:15.111Z,8.53
2018-09-21T09:40:44.078Z,11.33
2018-09-21T09:43:14.644Z,8.00
2018-09-21T09:45:43.709Z,7.80
2018-09-21T09:48:12.641Z,9.97
2018-09-21T09:50:42.986Z,9.77
2018-09-21T09:53:11.851Z,11.90
2018-09-21T09:55:40.801Z,9.03
2018-09-21T09:58:09.839Z,7.00
2018-09-21T10:00:43.706Z,7.37
2018-09-21T10:03:12.713Z,7.87
2018-09-21T10:05:42.991Z,7.57
2018-09-21T10:08:12.969Z,9.80
2018-09-21T10:10:42.213Z,9.10
2018-09-21T10:13:11.607Z,9.17
2018-09-21T10:15:40.668Z,10.95
2018-09-21T10:18:09.839Z,8.10
2018-09-21T10:20:38.909Z,6.73
2018-09-21T10:23:07.959Z,9.00
2018-09-21T10:25:38.256Z,8.47
2018-09-21T10:28:07.480Z,7.07
2018-09-21T10:30:36.385Z,8.17
2018-09-21T10:33:06.623Z,8.40
2018-09-21T10:35:35.585Z,6.30
2018-09-21T10:38:04.493Z,9.27
2018-09-21T10:40:34.695Z,7.43
2018-09-21T10:43:05.070Z,7.43
2018-09-21T10:45:36.190Z,8.07
2018-09-21T10:48:05.382Z,8.83
2018-09-21T10:50:35.767Z,7.20
2018-09-21T10:53:04.752Z,8.83
2018-09-21T10:55:33.786Z,8.03
2018-09-21T10:58:04.134Z,10.27
2018-09-21T11:00:33.102Z,10.83
2018-09-21T11:03:02.126Z,8.73
2018-09-21T11:05:31.119Z,5.77
2018-09-21T11:08:00.181Z,8.30
2018-09-21T11:10:30.356Z,9.07
2018-09-21T11:13:00.747Z,11.13
2018-09-21T11:15:29.699Z,7.40
2018-09-21T11:17:58.624Z,8.70
2018-09-21T11:20:27.593Z,8.97
2018-09-21T11:22:56.516Z,7.50
2018-09-21T11:25:25.465Z,9.30
2018-09-21T11:27:54.633Z,9.37
2018-09-21T11:30:23.566Z,5.60
2018-09-21T11:32:52.516Z,8.17
2018-09-21T11:35:21.569Z,6.40
2018-09-21T11:37:50.528Z,9.57
2018-09-21T11:40:19.556Z,6.43
2018-09-21T11:42:48.565Z,7.87
2018-09-21T11:45:17.643Z,7.23
2018-09-21T11:47:46.632Z,7.37
2018-09-21T11:50:16.807Z,6.43
2018-09-21T11:52:45.723Z,8.00
2018-09-21T11:55:16.028Z,10.75
2018-09-21T11:57:45.007Z,7.53
2018-09-21T12:00:14.012Z,10.33
2018-09-21T12:02:44.343Z,12.77
2018-09-21T12:05:13.352Z,7.03
2018-09-21T12:07:42.318Z,10.67
2018-09-21T12:10:11.360Z,5.43
2018-09-21T12:12:40.431Z,13.00
2018-09-21T12:15:09.512Z,10.47
2018-09-21T12:17:38.503Z,6.67
2018-09-21T12:20:07.567Z,11.07
2018-09-21T12:22:36.627Z,6.97
2018-09-21T12:25:06.021Z,7.57
2018-09-21T12:27:35.028Z,9.27
2018-09-21T12:30:04.013Z,8.73
2018-09-21T12:32:32.921Z,11.03
2018-09-21T12:35:01.909Z,9.47
2018-09-21T12:37:30.866Z,7.93
2018-09-21T12:39:59.799Z,11.60
2018-09-21T12:42:28.863Z,10.87
2018-09-21T12:44:57.866Z,9.07
2018-09-21T12:47:26.802Z,8.53
2018-09-21T12:49:55.810Z,6.43
2018-09-21T12:52:24.829Z,10.40
2018-09-21T12:54:53.744Z,7.43
2018-09-21T12:57:24.070Z,8.70
2018-09-21T12:59:53.052Z,8.47
2018-09-21T13:02:22.025Z,7.47
2018-09-21T13:04:51.134Z,8.50
2018-09-21T13:07:20.087Z,10.90
2018-09-21T13:09:50.437Z,7.63
2018-09-21T13:12:19.409Z,6.97
2018-09-21T13:14:48.384Z,10.73
2018-09-21T13:17:17.336Z,8.63
2018-09-21T13:19:46.444Z,7.37
2018-09-21T13:22:15.374Z,10.80
2018-09-21T13:24:44.591Z,11.43
2018-09-21T13:27:13.590Z,10.90
2018-09-21T13:29:42.685Z,9.70
2018-09-21T13:32:11.693Z,8.90
2018-09-21T13:34:40.657Z,9.43
2018-09-21T13:37:09.671Z,10.80
2018-09-21T13:39:38.670Z,9.47
2018-09-21T13:42:07.699Z,8.40
2018-09-21T13:44:36.627Z,9.23
2018-09-21T13:47:05.759Z,7.33
2018-09-21T13:49:34.790Z,10.70
2018-09-21T13:52:03.913Z,11.40
2018-09-21T13:54:32.899Z,6.00
2018-09-21T13:57:01.828Z,8.27
2018-09-21T13:59:30.768Z,7.73
2018-09-21T14:01:59.718Z,9.37
2018-09-21T14:04:28.654Z,10.03
2018-09-21T14:06:57.576Z,8.10
2018-09-21T14:09:26.594Z,11.03
2018-09-21T14:11:55.721Z,11.37
2018-09-21T14:14:24.895Z,8.20
2018-09-21T14:16:53.815Z,9.50
2018-09-21T14:19:23.059Z,11.47
2018-09-21T14:21:52.189Z,6.03
2018-09-21T14:24:21.121Z,7.53
2018-09-21T14:26:50.101Z,7.57
2018-09-21T14:29:19.010Z,6.40
2018-09-21T14:31:47.947Z,8.83
2018-09-21T14:34:18.291Z,11.43
2018-09-21T14:36:47.237Z,7.67
2018-09-21T14:39:16.231Z,8.73
2018-09-21T14:41:46.411Z,9.43
2018-09-21T14:44:15.322Z,11.17
2018-09-21T14:46:44.399Z,8.63
2018-09-21T14:49:14.680Z,9.07
2018-09-21T14:51:43.690Z,7.87
2018-09-21T14:54:12.720Z,14.90
2018-09-21T14:56:41.683Z,15.67
2018-09-21T14:59:10.630Z,14.67
2018-09-21T15:01:39.578Z,10.27
2018-09-21T15:04:08.694Z,11.80
2018-09-21T15:06:37.644Z,7.73
2018-09-21T15:09:09.301Z,8.67
2018-09-21T15:11:38.855Z,12.13
2018-09-21T15:14:07.906Z,10.13
2018-09-21T15:16:38.374Z,12.20
2018-09-21T15:19:07.345Z,10.97
2018-09-21T15:21:36.274Z,13.77
2018-09-21T15:24:05.388Z,8.63
2018-09-21T15:26:34.532Z,10.27
2018-09-21T15:29:03.537Z,12.93
2018-09-21T15:31:32.555Z,19.57
2018-09-21T15:34:01.466Z,10.53
2018-09-21T15:36:31.735Z,11.70
2018-09-21T15:39:00.685Z,14.67
2018-09-21T15:41:29.665Z,11.07
2018-09-21T15:43:58.652Z,11.50
2018-09-21T15:46:27.558Z,11.27
2018-09-21T15:48:56.603Z,12.27
2018-09-21T15:51:26.825Z,9.90
2018-09-21T15:53:55.770Z,9.60
2018-09-21T15:56:24.747Z,11.73
2018-09-21T15:58:55.149Z,10.50
2018-09-21T16:01:24.097Z,14.53
2018-09-21T16:03:54.378Z,10.03
2018-09-21T16:06:23.305Z,11.90
2018-09-21T16:08:52.213Z,12.27
2018-09-21T16:11:21.487Z,11.77
2018-09-21T16:13:50.439Z,13.00
2018-09-21T16:16:20.745Z,10.97
2018-09-21T16:18:49.905Z,11.93
2018-09-21T16:21:18.917Z,11.40
2018-09-21T16:23:47.841Z,12.63
2018-09-21T16:26:18.187Z,14.83
2018-09-21T16:28:47.103Z,10.17
2018-09-21T16:31:16.046Z,11.10
2018-09-21T16:33:46.448Z,12.23
2018-09-21T16:36:15.494Z,11.10
2018-09-21T16:38:44.467Z,13.23
2018-09-21T16:41:13.487Z,11.00
2018-09-21T16:43:42.390Z,10.33
2018-09-21T16:46:11.354Z,9.73
2018-09-21T16:48:40.284Z,12.97
2018-09-21T16:51:10.515Z,13.47
2018-09-21T16:53:39.470Z,9.97
2018-09-21T16:56:09.890Z,11.13
2018-09-21T16:58:38.819Z,15.80
2018-09-21T17:01:07.894Z,11.47
2018-09-21T17:03:38.247Z,11.33
2018-09-21T17:06:07.221Z,10.60
2018-09-21T17:08:37.471Z,14.27
2018-09-21T17:11:06.490Z,12.03
2018-09-21T17:13:35.452Z,13.17
2018-09-21T17:16:04.431Z,11.43
2018-09-21T17:18:33.388Z,14.43
2018-09-21T17:21:03.617Z,12.23
2018-09-21T17:23:32.551Z,19.10
2018-09-21T17:26:01.605Z,10.30
2018-09-21T17:28:32.099Z,10.87
2018-09-21T17:31:01.161Z,11.17
2018-09-21T17:33:30.103Z,12.30
2018-09-21T17:36:00.431Z,10.03
2018-09-21T17:38:29.481Z,9.00
2018-09-21T17:40:58.649Z,10.97
2018-09-21T17:43:27.642Z,14.43
2018-09-21T17:45:56.594Z,11.67
2018-09-21T17:48:25.549Z,14.77
2018-09-21T17:50:54.567Z,11.77
2018-09-21T17:53:23.523Z,9.90
2018-09-21T17:55:52.502Z,12.67
2018-09-21T17:58:21.524Z,11.37
2018-09-21T18:00:50.711Z,11.80
2018-09-21T18:03:19.634Z,14.43
2018-09-21T18:05:48.644Z,11.53
2018-09-21T18:08:17.608Z,16.67
2018-09-21T18:10:46.545Z,13.00
2018-09-21T18:13:16.884Z,14.50
2018-09-21T18:15:45.861Z,11.87
2018-09-21T18:18:14.826Z,12.80
2018-09-21T18:20:43.735Z,11.47
2018-09-21T18:23:12.605Z,12.90
2018-09-21T18:25:41.568Z,19.10
2018-09-21T18:28:11.880Z,15.23
2018-09-21T18:30:40.760Z,20.00
2018-09-21T18:33:09.738Z,19.10
2018-09-21T18:35:38.779Z,19.40
2018-09-21T18:38:07.735Z,16.37
2018-09-21T18:40:36.633Z,17.93
2018-09-21T18:43:05.731Z,19.17
2018-09-21T18:45:35.947Z,16.43
2018-09-21T18:48:04.873Z,16.77
2018-09-21T18:50:33.861Z,16.00
2018-09-21T18:53:04.060Z,16.53
2018-09-21T18:55:33.147Z,16.70
2018-09-21T18:58:02.179Z,16.90
2018-09-21T19:00:31.258Z,17.10
2018-09-21T19:03:00.275Z,16.03
2018-09-21T19:05:29.189Z,18.53
2018-09-21T19:07:58.164Z,17.63
2018-09-21T19:10:27.147Z,19.00
2018-09-21T19:12:56.151Z,23.07
2018-09-21T19:15:25.213Z,19.03
2018-09-21T19:17:55.363Z,18.47
2018-09-21T19:20:24.233Z,17.83
2018-09-21T19:22:54.879Z,20.37
2018-09-21T19:25:23.822Z,19.67
2018-09-21T19:27:52.761Z,17.07
2018-09-21T19:30:21.734Z,17.37
2018-09-21T19:32:50.666Z,21.47
2018-09-21T19:35:20.978Z,18.33
2018-09-21T19:37:49.974Z,17.87
2018-09-21T19:40:18.977Z,17.80
2018-09-21T19:42:48.032Z,17.33
2018-09-21T19:45:17.021Z,17.13
2018-09-21T19:47:45.991Z,18.30
2018-09-21T19:50:14.898Z,18.23
2018-09-21T19:52:43.859Z,17.43
2018-09-21T19:55:12.763Z,20.50
2018-09-21T19:57:41.689Z,19.73
2018-09-21T20:00:11.980Z,17.83
2018-09-21T20:02:40.850Z,19.83
2018-09-21T20:05:09.768Z,16.90
2018-09-21T20:07:38.716Z,16.90
2018-09-21T20:10:07.776Z,17.67
2018-09-21T20:12:36.711Z,19.27
2018-09-21T20:15:05.732Z,17.50
2018-09-21T20:17:34.678Z,19.52
2018-09-21T20:20:04.925Z,17.97
2018-09-21T20:22:33.823Z,19.93
2018-09-21T20:25:02.822Z,19.03
2018-09-21T20:27:31.785Z,20.10
2018-09-21T20:30:06.988Z,18.53
2018-09-21T20:32:41.095Z,18.17
2018-09-21T20:35:10.052Z,18.23
2018-09-21T20:37:39.067Z,22.70
2018-09-21T20:40:09.406Z,18.90
2018-09-21T20:42:39.619Z,19.67
2018-09-21T20:45:09.874Z,18.87
2018-09-21T20:47:38.751Z,19.13
2018-09-21T20:50:07.735Z,17.80
2018-09-21T20:52:37.987Z,17.33
2018-09-21T20:55:07.044Z,20.23
2018-09-21T20:57:36.004Z,18.60
2018-09-21T21:00:06.342Z,20.40
2018-09-21T21:02:35.277Z,20.00
2018-09-21T21:05:04.268Z,18.77
2018-09-21T21:07:33.325Z,17.63
2018-09-21T21:10:02.269Z,19.67
2018-09-21T21:12:31.239Z,18.63
2018-09-21T21:15:01.678Z,21.23
2018-09-21T21:17:30.636Z,20.80
2018-09-21T21:19:59.622Z,20.73
2018-09-21T21:22:28.585Z,23.07
2018-09-21T21:24:57.550Z,19.83
2018-09-21T21:27:26.527Z,23.03
2018-09-21T21:29:55.564Z,20.97
2018-09-21T21:32:24.590Z,24.03
2018-09-21T21:34:53.526Z,24.17
2018-09-21T21:37:22.551Z,22.60
2018-09-21T21:39:51.528Z,23.03
2018-09-21T21:42:20.387Z,24.00
2018-09-21T21:44:49.246Z,22.50
2018-09-21T21:47:18.427Z,26.03
2018-09-21T21:49:47.331Z,24.17
2018-09-21T21:52:16.263Z,25.23
2018-09-21T21:54:45.267Z,22.33
2018-09-21T21:57:14.245Z,24.40
2018-09-21T21:59:44.132Z,25.63
2018-09-21T22:02:13.783Z,26.83
2018-09-21T22:04:43.058Z,26.37
2018-09-21T22:07:12.830Z,26.77
2018-09-21T22:09:43.807Z,23.37
2018-09-21T22:12:18.346Z,28.20
2018-09-21T22:14:54.908Z,28.20
2018-09-21T22:17:27.120Z,28.73
2018-09-21T22:19:57.029Z,29.50
2018-09-21T22:22:27.456Z,30.40
2018-09-21T22:25:00.100Z,29.20
2018-09-21T22:27:33.795Z,30.73
2018-09-21T22:30:09.896Z,30.00
2018-09-21T22:32:44.742Z,29.97
2018-09-21T22:35:20.024Z,36.87
2018-09-21T22:37:59.549Z,38.20
2018-09-21T22:40:28.812Z,36.80
2018-09-21T22:43:01.685Z,40.27
2018-09-21T22:45:31.531Z,35.50
2018-09-21T22:48:00.520Z,38.10
2018-09-21T22:50:29.439Z,39.40
2018-09-21T22:53:00.235Z,40.70
2018-09-21T22:55:29.241Z,38.73
2018-09-21T22:57:58.133Z,39.17
2018-09-21T23:00:27.258Z,35.60
2018-09-21T23:02:56.339Z,37.83
2018-09-21T23:05:25.206Z,39.58
2018-09-21T23:07:54.059Z,32.97
2018-09-21T23:10:23.242Z,32.73
2018-09-21T23:12:52.155Z,34.20
2018-09-21T23:15:21.219Z,32.63
2018-09-21T23:17:50.088Z,38.53
2018-09-21T23:20:19.027Z,60.57
2018-09-21T23:22:47.879Z,36.97
2018-09-21T23:25:16.928Z,40.27
2018-09-21T23:27:45.804Z,39.43
2018-09-21T23:30:14.642Z,36.13
2018-09-21T23:32:43.512Z,51.10
2018-09-21T23:35:12.402Z,51.47
2018-09-21T23:37:41.239Z,63.85
2018-09-21T23:40:10.166Z,58.27
2018-09-21T23:42:39.258Z,57.87
2018-09-21T23:45:08.440Z,92.27
2018-09-21T23:47:37.314Z,77.50
2018-09-21T23:50:06.290Z,75.77
2018-09-21T23:52:35.198Z,103.33
2018-09-21T23:55:04.121Z,57.20
2018-09-21T23:57:33.132Z,56.30
